Superferry II — SWKV — position and weather

sailwx.info

Track history (hours):
 
Tides and Currents Weather Stations Pressure Air Temp Water Temp Dewpoint Dewpoint Depression Visibility Wind Speed Wind Dir Waves Ship Positions

Superferry II

Last reported at 2015-Aug-03 16:33 UTC. Time now 2015-Aug-03 17:10 UTC.
Position N 38°01' E 024°04'.

Length 122 m; draft 4.7 m.

Type: Passenger vessel. MMSI: 237001000.

Date/timePositionNaut miles runAvg speedWind from/ knotsBaromVisibWave heightAir tempDewpointWater temp
2015-Aug-03 16:33N 38°01' E 024°04'0 0.2
2015-Aug-03 15:32N 38°01' E 024°04'4514.9
2015-Aug-03 12:33N 37°42' E 024°55'1514.7
2015-Aug-03 11:33N 37°32' E 025°09'9 9.1
2015-Aug-03 10:33N 37°28' E 025°19'7 6.5
2015-Aug-03 09:33N 37°30' E 025°12'1212.1
2015-Aug-03 08:34N 37°38' E 024°60'4515.1
2015-Aug-03 05:33N 37°59' E 024°09'4 0.3
2015-Aug-02 16:33N 38°01' E 024°04'4611.5
2015-Aug-02 12:33N 37°40' E 024°56'1313.1
2015-Aug-02 11:33N 37°32' E 025°09'9 9.2
2015-Aug-02 10:33N 37°28' E 025°19'9 9.1
2015-Aug-02 09:33N 37°32' E 025°09'5614.1
2015-Aug-02 05:33N 37°60' E 024°07'5 1.6
2015-Aug-02 02:08N 38°01' E 024°01'4918.9
2015-Aug-01 23:33N 37°38' E 024°55'1919.1
2015-Aug-01 22:34N 37°29' E 025°16'5 4.7
2015-Aug-01 21:33N 37°31' E 025°11'1110.6
2015-Aug-01 20:33N 37°37' E 024°60'4515.0
2015-Aug-01 17:32N 37°59' E 024°10'3 1.7
2015-Aug-01 15:33N 38°00' E 024°05'4714.9
2015-Aug-01 12:24N 37°39' E 024°58'1112.9
2015-Aug-01 11:32N 37°32' E 025°09'9 9.3
2015-Aug-01 10:33N 37°28' E 025°19'1010.3
2015-Aug-01 09:33N 37°33' E 025°08'5513.8
2015-Aug-01 05:33N 37°60' E 024°07'5 0.7
2015-Jul-31 21:33N 38°01' E 024°01'11 2.7
2015-Jul-31 17:33N 37°58' E 024°14'9 4.5
2015-Jul-31 15:33N 38°01' E 024°03'5115.1
2015-Jul-31 12:11N 37°37' E 025°00'913.6
2015-Jul-31 11:32N 37°32' E 025°09'9 9.3
2015-Jul-31 10:33N 37°28' E 025°19'2 2.0
2015-Jul-31 09:33N 37°28' E 025°17'6115.1
2015-Jul-31 05:29N 37°59' E 024°10'7 1.7
2015-Jul-31 01:10N 38°01' E 024°01'5317.8
2015-Jul-30 22:11N 37°36' E 025°00'1117.9
2015-Jul-30 21:33N 37°30' E 025°12'1 1.0
2015-Jul-30 20:33N 37°30' E 025°13'6015.2
2015-Jul-30 16:33N 37°60' E 024°07'3 2.8
2015-Jul-30 15:24N 38°01' E 024°03'4314.9
2015-Jul-30 12:33N 37°44' E 024°52'1817.9
2015-Jul-30 11:33N 37°32' E 025°09'9 9.1
2015-Jul-30 10:33N 37°28' E 025°19'1 1.0
2015-Jul-30 09:33N 37°28' E 025°18'1313.0
2015-Jul-30 08:33N 37°35' E 025°04'4915.4
2015-Jul-30 05:24N 37°59' E 024°11'6 0.4
2015-Jul-29 15:33N 38°01' E 024°04'4214.1
2015-Jul-29 12:33N 37°43' E 024°53'1717.2
2015-Jul-29 11:34N 37°32' E 025°09'9 9.1
2015-Jul-29 10:33N 37°28' E 025°19'1 0.9
2015-Jul-29 09:33N 37°28' E 025°18'1211.9
2015-Jul-29 08:33N 37°34' E 025°05'4815.7
2015-Jul-29 05:31N 37°58' E 024°13'36 2.1
2015-Jul-28 12:33N 37°43' E 024°54'1616.3
2015-Jul-28 11:33N 37°32' E 025°09'9 9.2
2015-Jul-28 10:33N 37°28' E 025°19'0 0.2
2015-Jul-28 09:33N 37°28' E 025°19'1312.9
2015-Jul-28 08:34N 37°34' E 025°05'4815.5
2015-Jul-28 05:29N 37°58' E 024°13'7 0.8
2015-Jul-27 20:33N 38°01' E 024°04'9 2.7
2015-Jul-27 17:07N 37°58' E 024°15'1119.3
2015-Jul-27 16:34N 38°01' E 024°02'4811.7
2015-Jul-27 12:29N 37°40' E 024°57'1213.5
2015-Jul-27 11:33N 37°32' E 025°09'9 9.3
2015-Jul-27 10:33N 37°28' E 025°20'0 0.1
2015-Jul-27 09:34N 37°28' E 025°19'1312.6
2015-Jul-27 08:33N 37°34' E 025°05'5016.1
2015-Jul-27 05:27N 37°59' E 024°11'7 0.8
2015-Jul-26 20:33N 38°01' E 024°02'5 1.1
2015-Jul-26 16:33N 37°60' E 024°07'2 2.0
2015-Jul-26 15:33N 38°01' E 024°05'4414.6
2015-Jul-26 12:34N 37°42' E 024°55'1514.8
2015-Jul-26 11:33N 37°32' E 025°09'9 9.2
2015-Jul-26 10:33N 37°28' E 025°19'9 9.2
2015-Jul-26 09:33N 37°32' E 025°09'5 5.3
2015-Jul-26 08:34N 37°34' E 025°03'4815.9
2015-Jul-26 05:32N 37°59' E 024°11'8 0.6
2015-Jul-25 16:19N 38°01' E 024°01'4415.1
2015-Jul-25 13:24N 37°44' E 024°52'1619.3
2015-Jul-25 12:33N 37°33' E 025°07'1111.2
2015-Jul-25 11:33N 37°28' E 025°19'0 0.3
2015-Jul-25 10:33N 37°28' E 025°20'8 7.8
2015-Jul-25 09:33N 37°31' E 025°11'1312.7
2015-Jul-25 08:33N 37°39' E 024°58'4515.0
2015-Jul-25 05:33N 37°60' E 024°08'1 0.1
2015-Jul-24 20:33N 38°00' E 024°07'  
Track history (hours):
 
Tides and Currents Weather Stations Pressure Air Temp Water Temp Dewpoint Dewpoint Depression Visibility Wind Speed Wind Dir Waves Ship Positions

Superferry II

Last reported at 2015-Aug-03 16:33 UTC. Time now 2015-Aug-03 17:10 UTC.
Position N 38°01' E 024°04'.

Length 122 m; draft 4.7 m.

Type: Passenger vessel. MMSI: 237001000.

Date/timePositionNaut miles runAvg speedWind from/ knotsBaromVisibWave heightAir tempDewpointWater temp
2015-Aug-03 16:33N 38°01' E 024°04'0 0.2
2015-Aug-03 15:32N 38°01' E 024°04'4514.9
2015-Aug-03 12:33N 37°42' E 024°55'1514.7
2015-Aug-03 11:33N 37°32' E 025°09'9 9.1
2015-Aug-03 10:33N 37°28' E 025°19'7 6.5
2015-Aug-03 09:33N 37°30' E 025°12'1212.1
2015-Aug-03 08:34N 37°38' E 024°60'4515.1
2015-Aug-03 05:33N 37°59' E 024°09'4 0.3
2015-Aug-02 16:33N 38°01' E 024°04'4611.5
2015-Aug-02 12:33N 37°40' E 024°56'1313.1
2015-Aug-02 11:33N 37°32' E 025°09'9 9.2
2015-Aug-02 10:33N 37°28' E 025°19'9 9.1
2015-Aug-02 09:33N 37°32' E 025°09'5614.1
2015-Aug-02 05:33N 37°60' E 024°07'5 1.6
2015-Aug-02 02:08N 38°01' E 024°01'4918.9
2015-Aug-01 23:33N 37°38' E 024°55'1919.1
2015-Aug-01 22:34N 37°29' E 025°16'5 4.7
2015-Aug-01 21:33N 37°31' E 025°11'1110.6
2015-Aug-01 20:33N 37°37' E 024°60'4515.0
2015-Aug-01 17:32N 37°59' E 024°10'3 1.7
2015-Aug-01 15:33N 38°00' E 024°05'4714.9
2015-Aug-01 12:24N 37°39' E 024°58'1112.9
2015-Aug-01 11:32N 37°32' E 025°09'9 9.3
2015-Aug-01 10:33N 37°28' E 025°19'1010.3
2015-Aug-01 09:33N 37°33' E 025°08'5513.8
2015-Aug-01 05:33N 37°60' E 024°07'5 0.7
2015-Jul-31 21:33N 38°01' E 024°01'11 2.7
2015-Jul-31 17:33N 37°58' E 024°14'9 4.5
2015-Jul-31 15:33N 38°01' E 024°03'5115.1
2015-Jul-31 12:11N 37°37' E 025°00'913.6
2015-Jul-31 11:32N 37°32' E 025°09'9 9.3
2015-Jul-31 10:33N 37°28' E 025°19'2 2.0
2015-Jul-31 09:33N 37°28' E 025°17'6115.1
2015-Jul-31 05:29N 37°59' E 024°10'7 1.7
2015-Jul-31 01:10N 38°01' E 024°01'5317.8
2015-Jul-30 22:11N 37°36' E 025°00'1117.9
2015-Jul-30 21:33N 37°30' E 025°12'1 1.0
2015-Jul-30 20:33N 37°30' E 025°13'6015.2
2015-Jul-30 16:33N 37°60' E 024°07'3 2.8
2015-Jul-30 15:24N 38°01' E 024°03'4314.9
2015-Jul-30 12:33N 37°44' E 024°52'1817.9
2015-Jul-30 11:33N 37°32' E 025°09'9 9.1
2015-Jul-30 10:33N 37°28' E 025°19'1 1.0
2015-Jul-30 09:33N 37°28' E 025°18'1313.0
2015-Jul-30 08:33N 37°35' E 025°04'4915.4
2015-Jul-30 05:24N 37°59' E 024°11'6 0.4
2015-Jul-29 15:33N 38°01' E 024°04'4214.1
2015-Jul-29 12:33N 37°43' E 024°53'1717.2
2015-Jul-29 11:34N 37°32' E 025°09'9 9.1
2015-Jul-29 10:33N 37°28' E 025°19'1 0.9
2015-Jul-29 09:33N 37°28' E 025°18'1211.9
2015-Jul-29 08:33N 37°34' E 025°05'4815.7
2015-Jul-29 05:31N 37°58' E 024°13'36 2.1
2015-Jul-28 12:33N 37°43' E 024°54'1616.3
2015-Jul-28 11:33N 37°32' E 025°09'9 9.2
2015-Jul-28 10:33N 37°28' E 025°19'0 0.2
2015-Jul-28 09:33N 37°28' E 025°19'1312.9
2015-Jul-28 08:34N 37°34' E 025°05'4815.5
2015-Jul-28 05:29N 37°58' E 024°13'7 0.8
2015-Jul-27 20:33N 38°01' E 024°04'9 2.7
2015-Jul-27 17:07N 37°58' E 024°15'1119.3
2015-Jul-27 16:34N 38°01' E 024°02'4811.7
2015-Jul-27 12:29N 37°40' E 024°57'1213.5
2015-Jul-27 11:33N 37°32' E 025°09'9 9.3
2015-Jul-27 10:33N 37°28' E 025°20'0 0.1
2015-Jul-27 09:34N 37°28' E 025°19'1312.6
2015-Jul-27 08:33N 37°34' E 025°05'5016.1
2015-Jul-27 05:27N 37°59' E 024°11'7 0.8
2015-Jul-26 20:33N 38°01' E 024°02'5 1.1
2015-Jul-26 16:33N 37°60' E 024°07'2 2.0
2015-Jul-26 15:33N 38°01' E 024°05'4414.6
2015-Jul-26 12:34N 37°42' E 024°55'1514.8
2015-Jul-26 11:33N 37°32' E 025°09'9 9.2
2015-Jul-26 10:33N 37°28' E 025°19'9 9.2
2015-Jul-26 09:33N 37°32' E 025°09'5 5.3
2015-Jul-26 08:34N 37°34' E 025°03'4815.9
2015-Jul-26 05:32N 37°59' E 024°11'8 0.6
2015-Jul-25 16:19N 38°01' E 024°01'4415.1
2015-Jul-25 13:24N 37°44' E 024°52'1619.3
2015-Jul-25 12:33N 37°33' E 025°07'1111.2
2015-Jul-25 11:33N 37°28' E 025°19'0 0.3
2015-Jul-25 10:33N 37°28' E 025°20'8 7.8
2015-Jul-25 09:33N 37°31' E 025°11'1312.7
2015-Jul-25 08:33N 37°39' E 024°58'4515.0
2015-Jul-25 05:33N 37°60' E 024°08'1 0.1
2015-Jul-24 20:33N 38°00' E 024°07'  

Dump ship's entire track history